SKU306 SCEL-SCAR
Flight info
| Callsign | SKU306 |
|---|---|
| Flight time | 2h 9m |
| Altitude | 36000 |
| Route | TENUT UQ802 GAXIR DCT REPUK |
| Aircraft | A21N/M-SDE2E3FGHIRWXY/LB1 |
Departure
| Time | 2026-04-25 12:14 |
|---|---|
| Airport | Comodoro Arturo Merino Benítez International Airport (SCEL) |
Arrival
| Time | 2026-04-25 14:23 |
|---|---|
| Airport | Chacalluta International Airport (SCAR) |
| Time | Latitude | Longitude | Altitude | Speed | Heading |
|---|---|---|---|---|---|
| 2026-04-25 12:04 | -33.39505 | -70.78966 | 1580 ft | 3 kts | 149° |
| 2026-04-25 12:04 | -33.39494 | -70.78984 | 1580 ft | 3 kts | 95° |
| 2026-04-25 12:05 | -33.39494 | -70.79008 | 1580 ft | 1 kts | 88° |
| 2026-04-25 12:05 | -33.39494 | -70.79009 | 1580 ft | 0 kts | 88° |
| 2026-04-25 12:07 | -33.39494 | -70.79008 | 1580 ft | 0 kts | 88° |
| 2026-04-25 12:08 | -33.39493 | -70.78994 | 1580 ft | 3 kts | 88° |
| 2026-04-25 12:08 | -33.39492 | -70.78956 | 1580 ft | 6 kts | 88° |
| 2026-04-25 12:08 | -33.39481 | -70.78897 | 1570 ft | 9 kts | 56° |
| 2026-04-25 12:08 | -33.39422 | -70.78849 | 1570 ft | 12 kts | 29° |
| 2026-04-25 12:09 | -33.39342 | -70.78799 | 1570 ft | 14 kts | 14° |
| 2026-04-25 12:09 | -33.39236 | -70.78800 | 1570 ft | 16 kts | 358° |
| 2026-04-25 12:09 | -33.39116 | -70.78806 | 1570 ft | 18 kts | 357° |
| 2026-04-25 12:09 | -33.38984 | -70.78813 | 1569 ft | 20 kts | 358° |
| 2026-04-25 12:10 | -33.38842 | -70.78820 | 1569 ft | 21 kts | 358° |
| 2026-04-25 12:10 | -33.38690 | -70.78828 | 1569 ft | 23 kts | 358° |
| 2026-04-25 12:10 | -33.38528 | -70.78837 | 1569 ft | 24 kts | 357° |
| 2026-04-25 12:10 | -33.38356 | -70.78846 | 1570 ft | 25 kts | 357° |
| 2026-04-25 12:11 | -33.38177 | -70.78856 | 1570 ft | 27 kts | 357° |
| 2026-04-25 12:11 | -33.37990 | -70.78866 | 1570 ft | 25 kts | 357° |
| 2026-04-25 12:11 | -33.37814 | -70.78875 | 1570 ft | 26 kts | 357° |
| 2026-04-25 12:11 | -33.37666 | -70.78880 | 1569 ft | 12 kts | 14° |
| 2026-04-25 12:12 | -33.37622 | -70.78794 | 1569 ft | 14 kts | 83° |
| 2026-04-25 12:12 | -33.37620 | -70.78714 | 1570 ft | 15 kts | 99° |
| 2026-04-25 12:12 | -33.37677 | -70.78669 | 1570 ft | 0 kts | 176° |
| 2026-04-25 12:13 | -33.37900 | -70.78655 | 1569 ft | 81 kts | 176° |
| 2026-04-25 12:13 | -33.38776 | -70.78608 | 1575 ft | 163 kts | 177° |
| 2026-04-25 12:13 | -33.40048 | -70.78562 | 2041 ft | 197 kts | 178° |
| 2026-04-25 12:14 | -33.41455 | -70.78513 | 2829 ft | 211 kts | 178° |
| 2026-04-25 12:14 | -33.42966 | -70.78457 | 3548 ft | 228 kts | 177° |
| 2026-04-25 12:14 | -33.44646 | -70.78389 | 4056 ft | 252 kts | 177° |
| 2026-04-25 12:14 | -33.46433 | -70.78566 | 4857 ft | 264 kts | 195° |
| 2026-04-25 12:15 | -33.48059 | -70.79610 | 5761 ft | 270 kts | 220° |
| 2026-04-25 12:15 | -33.49182 | -70.81418 | 6708 ft | 275 kts | 246° |
| 2026-04-25 12:15 | -33.49547 | -70.83668 | 7616 ft | 279 kts | 271° |
| 2026-04-25 12:15 | -33.49268 | -70.85985 | 8582 ft | 282 kts | 280° |
| 2026-04-25 12:16 | -33.48872 | -70.88295 | 9563 ft | 285 kts | 279° |
| 2026-04-25 12:16 | -33.48489 | -70.90614 | 10406 ft | 294 kts | 278° |
| 2026-04-25 12:16 | -33.48095 | -70.93113 | 10797 ft | 317 kts | 279° |
| 2026-04-25 12:16 | -33.47430 | -70.95738 | 11124 ft | 344 kts | 292° |
| 2026-04-25 12:17 | -33.46035 | -70.98192 | 11409 ft | 370 kts | 311° |
| 2026-04-25 12:17 | -33.43915 | -71.00098 | 11680 ft | 394 kts | 330° |
| 2026-04-25 12:17 | -33.41286 | -71.01277 | 12032 ft | 410 kts | 342° |
| 2026-04-25 12:17 | -33.38521 | -71.02215 | 12606 ft | 416 kts | 342° |
| 2026-04-25 12:18 | -33.35727 | -71.03202 | 13238 ft | 419 kts | 341° |
| 2026-04-25 12:18 | -33.32930 | -71.04252 | 13884 ft | 423 kts | 340° |
| 2026-04-25 12:18 | -33.31038 | -71.04989 | 14253 ft | 425 kts | 340° |
| 2026-04-25 12:18 | -33.28259 | -71.06086 | 14773 ft | 428 kts | 339° |
| 2026-04-25 12:19 | -33.22564 | -71.08318 | 15977 ft | 431 kts | 339° |
| 2026-04-25 12:19 | -33.19709 | -71.09439 | 16499 ft | 432 kts | 339° |
| 2026-04-25 12:19 | -33.15903 | -71.10919 | 17116 ft | 436 kts | 338° |
| 2026-04-25 12:20 | -33.13945 | -71.11677 | 17417 ft | 438 kts | 338° |
| 2026-04-25 12:20 | -33.11083 | -71.12792 | 17874 ft | 440 kts | 338° |
| 2026-04-25 12:20 | -33.08164 | -71.13925 | 18338 ft | 441 kts | 338° |
| 2026-04-25 12:20 | -33.05246 | -71.15062 | 18771 ft | 441 kts | 337° |
| 2026-04-25 12:21 | -33.02325 | -71.16207 | 19177 ft | 443 kts | 337° |
| 2026-04-25 12:21 | -32.99379 | -71.17356 | 19604 ft | 446 kts | 336° |
| 2026-04-25 12:21 | -32.96415 | -71.18460 | 20081 ft | 450 kts | 339° |
| 2026-04-25 12:21 | -32.93293 | -71.19077 | 20573 ft | 460 kts | 349° |
| 2026-04-25 12:22 | -32.90067 | -71.19186 | 21060 ft | 466 kts | 353° |
| 2026-04-25 12:22 | -32.86808 | -71.19212 | 21584 ft | 470 kts | 352° |
| 2026-04-25 12:22 | -32.83530 | -71.19249 | 22117 ft | 472 kts | 352° |
| 2026-04-25 12:22 | -32.80237 | -71.19304 | 22605 ft | 475 kts | 351° |
| 2026-04-25 12:23 | -32.76924 | -71.19361 | 23086 ft | 478 kts | 351° |
| 2026-04-25 12:23 | -32.73633 | -71.19420 | 23507 ft | 481 kts | 351° |
| 2026-04-25 12:23 | -32.70274 | -71.19483 | 23904 ft | 484 kts | 351° |
| 2026-04-25 12:23 | -32.66895 | -71.19548 | 24278 ft | 486 kts | 351° |
| 2026-04-25 12:24 | -32.63510 | -71.19608 | 24754 ft | 485 kts | 351° |
| 2026-04-25 12:24 | -32.60142 | -71.19668 | 25229 ft | 484 kts | 350° |
| 2026-04-25 12:24 | -32.56767 | -71.19727 | 25758 ft | 482 kts | 350° |
| 2026-04-25 12:24 | -32.53428 | -71.19786 | 26295 ft | 479 kts | 350° |
| 2026-04-25 12:25 | -32.50095 | -71.19849 | 26734 ft | 479 kts | 349° |
| 2026-04-25 12:25 | -32.46754 | -71.19913 | 27140 ft | 480 kts | 349° |
| 2026-04-25 12:25 | -32.43421 | -71.19970 | 27649 ft | 478 kts | 349° |
| 2026-04-25 12:25 | -32.40096 | -71.20030 | 28154 ft | 477 kts | 349° |
| 2026-04-25 12:26 | -32.36823 | -71.20092 | 28628 ft | 475 kts | 349° |
| 2026-04-25 12:26 | -32.33526 | -71.20152 | 29095 ft | 473 kts | 349° |
| 2026-04-25 12:26 | -32.30233 | -71.20213 | 29544 ft | 473 kts | 349° |
| 2026-04-25 12:26 | -32.26945 | -71.20273 | 30023 ft | 472 kts | 349° |
| 2026-04-25 12:27 | -32.23658 | -71.20333 | 30417 ft | 471 kts | 349° |
| 2026-04-25 12:27 | -32.20391 | -71.20391 | 30816 ft | 470 kts | 349° |
| 2026-04-25 12:27 | -32.17123 | -71.20450 | 31250 ft | 468 kts | 348° |
| 2026-04-25 12:27 | -32.13866 | -71.20509 | 31688 ft | 466 kts | 348° |
| 2026-04-25 12:28 | -32.10623 | -71.20567 | 32119 ft | 465 kts | 348° |
| 2026-04-25 12:28 | -32.07398 | -71.20625 | 32547 ft | 464 kts | 348° |
| 2026-04-25 12:28 | -32.04178 | -71.20683 | 33002 ft | 461 kts | 348° |
| 2026-04-25 12:28 | -32.00971 | -71.20741 | 33410 ft | 460 kts | 348° |
| 2026-04-25 12:29 | -31.97797 | -71.20799 | 33768 ft | 460 kts | 348° |
| 2026-04-25 12:29 | -31.94605 | -71.20856 | 34222 ft | 457 kts | 348° |
| 2026-04-25 12:29 | -31.91433 | -71.20909 | 34601 ft | 453 kts | 347° |
| 2026-04-25 12:29 | -31.88282 | -71.20966 | 34920 ft | 451 kts | 347° |
| 2026-04-25 12:30 | -31.85142 | -71.21024 | 35177 ft | 451 kts | 347° |
| 2026-04-25 12:30 | -31.82005 | -71.21082 | 35406 ft | 450 kts | 346° |
| 2026-04-25 12:30 | -31.78864 | -71.21133 | 35591 ft | 451 kts | 347° |
| 2026-04-25 12:30 | -31.75709 | -71.21014 | 35728 ft | 455 kts | 349° |
| 2026-04-25 12:31 | -31.72548 | -71.20822 | 35853 ft | 454 kts | 350° |
| 2026-04-25 12:31 | -31.69390 | -71.20626 | 36062 ft | 455 kts | 349° |
| 2026-04-25 12:31 | -31.66263 | -71.20431 | 36166 ft | 456 kts | 349° |
| 2026-04-25 12:32 | -31.59930 | -71.20042 | 36162 ft | 455 kts | 349° |
| 2026-04-25 12:32 | -31.53603 | -71.19666 | 36157 ft | 454 kts | 349° |
| 2026-04-25 12:33 | -31.47283 | -71.19287 | 36130 ft | 455 kts | 349° |
| 2026-04-25 12:33 | -31.40982 | -71.18898 | 36118 ft | 453 kts | 349° |
| 2026-04-25 12:34 | -31.34678 | -71.18508 | 36130 ft | 453 kts | 349° |
| 2026-04-25 12:34 | -31.28399 | -71.18120 | 36111 ft | 451 kts | 349° |
| 2026-04-25 12:35 | -31.22115 | -71.17751 | 36116 ft | 453 kts | 349° |
| 2026-04-25 12:35 | -31.15833 | -71.17374 | 36083 ft | 451 kts | 349° |
| 2026-04-25 12:36 | -31.09597 | -71.17005 | 36117 ft | 451 kts | 349° |
| 2026-04-25 12:36 | -31.03321 | -71.16635 | 36105 ft | 452 kts | 349° |
| 2026-04-25 12:37 | -30.97048 | -71.16256 | 36102 ft | 451 kts | 349° |
| 2026-04-25 12:37 | -30.90782 | -71.15873 | 36093 ft | 450 kts | 348° |
| 2026-04-25 12:38 | -30.84525 | -71.15496 | 36109 ft | 450 kts | 348° |
| 2026-04-25 12:38 | -30.78276 | -71.15118 | 36102 ft | 449 kts | 348° |
| 2026-04-25 12:39 | -30.72077 | -71.14759 | 36096 ft | 450 kts | 348° |
| 2026-04-25 12:39 | -30.65825 | -71.14391 | 36049 ft | 449 kts | 348° |
| 2026-04-25 12:40 | -30.59579 | -71.14017 | 36087 ft | 449 kts | 348° |
| 2026-04-25 12:40 | -30.53322 | -71.13643 | 36091 ft | 450 kts | 348° |
| 2026-04-25 12:41 | -30.47072 | -71.13274 | 36090 ft | 450 kts | 348° |
| 2026-04-25 12:41 | -30.40852 | -71.12898 | 36080 ft | 450 kts | 348° |
| 2026-04-25 12:42 | -30.34582 | -71.12532 | 36061 ft | 450 kts | 348° |
| 2026-04-25 12:42 | -30.28315 | -71.12173 | 36084 ft | 450 kts | 348° |
| 2026-04-25 12:43 | -30.22027 | -71.11708 | 36068 ft | 456 kts | 351° |
| 2026-04-25 12:43 | -30.12524 | -71.10677 | 36031 ft | 456 kts | 351° |
| 2026-04-25 12:44 | -30.06237 | -71.10002 | 36070 ft | 456 kts | 351° |
| 2026-04-25 12:45 | -29.96750 | -71.08985 | 36076 ft | 456 kts | 351° |
| 2026-04-25 12:45 | -29.87259 | -71.07969 | 36081 ft | 457 kts | 351° |
| 2026-04-25 12:46 | -29.80923 | -71.07295 | 36079 ft | 457 kts | 351° |
| 2026-04-25 12:46 | -29.74606 | -71.06622 | 36081 ft | 460 kts | 351° |
| 2026-04-25 12:47 | -29.68258 | -71.05935 | 36071 ft | 459 kts | 351° |
| 2026-04-25 12:47 | -29.61905 | -71.05257 | 36076 ft | 458 kts | 351° |
| 2026-04-25 12:48 | -29.55527 | -71.04582 | 36046 ft | 461 kts | 351° |
| 2026-04-25 12:48 | -29.49150 | -71.03899 | 36072 ft | 459 kts | 351° |
| 2026-04-25 12:49 | -29.42761 | -71.03109 | 36068 ft | 465 kts | 353° |
| 2026-04-25 12:49 | -29.36365 | -71.02085 | 36070 ft | 463 kts | 353° |
| 2026-04-25 12:50 | -29.29969 | -71.01081 | 36070 ft | 464 kts | 353° |
| 2026-04-25 12:50 | -29.23647 | -71.00293 | 36041 ft | 456 kts | 350° |
| 2026-04-25 12:51 | -29.17323 | -70.99716 | 36060 ft | 455 kts | 350° |
| 2026-04-25 12:51 | -29.11005 | -70.99132 | 36055 ft | 456 kts | 350° |
| 2026-04-25 12:52 | -29.04674 | -70.98538 | 36062 ft | 456 kts | 350° |
| 2026-04-25 12:52 | -28.98357 | -70.97942 | 36030 ft | 455 kts | 351° |
| 2026-04-25 12:53 | -28.92045 | -70.97346 | 36050 ft | 455 kts | 351° |
| 2026-04-25 12:53 | -28.85745 | -70.96754 | 36052 ft | 454 kts | 351° |
| 2026-04-25 12:54 | -28.79446 | -70.96171 | 36053 ft | 454 kts | 351° |
| 2026-04-25 12:54 | -28.73144 | -70.95587 | 36001 ft | 454 kts | 351° |
| 2026-04-25 12:55 | -28.67933 | -70.95092 | 36002 ft | 450 kts | 351° |
| 2026-04-25 12:55 | -28.60704 | -70.94419 | 36067 ft | 449 kts | 351° |
| 2026-04-25 12:56 | -28.54443 | -70.93842 | 36069 ft | 452 kts | 351° |
| 2026-04-25 12:56 | -28.48168 | -70.93254 | 36049 ft | 453 kts | 351° |
| 2026-04-25 12:57 | -28.41884 | -70.92595 | 36021 ft | 452 kts | 352° |
| 2026-04-25 12:57 | -28.35616 | -70.91938 | 36064 ft | 451 kts | 352° |
| 2026-04-25 12:58 | -28.29400 | -70.91293 | 36076 ft | 451 kts | 352° |
| 2026-04-25 12:58 | -28.23132 | -70.90639 | 36069 ft | 451 kts | 352° |
| 2026-04-25 12:59 | -28.16868 | -70.89968 | 36087 ft | 452 kts | 352° |
| 2026-04-25 12:59 | -28.10640 | -70.89302 | 36064 ft | 452 kts | 353° |
| 2026-04-25 13:00 | -28.06440 | -70.88859 | 36075 ft | 452 kts | 353° |
| 2026-04-25 13:00 | -27.98113 | -70.87972 | 36081 ft | 452 kts | 353° |
| 2026-04-25 13:01 | -27.91837 | -70.87308 | 36077 ft | 454 kts | 353° |
| 2026-04-25 13:01 | -27.85560 | -70.86638 | 36061 ft | 451 kts | 353° |
| 2026-04-25 13:02 | -27.79349 | -70.85984 | 36083 ft | 451 kts | 353° |
| 2026-04-25 13:02 | -27.73090 | -70.85317 | 36089 ft | 451 kts | 353° |
| 2026-04-25 13:03 | -27.66839 | -70.84657 | 36082 ft | 451 kts | 353° |
| 2026-04-25 13:03 | -27.60585 | -70.83994 | 36086 ft | 451 kts | 353° |
| 2026-04-25 13:04 | -27.54332 | -70.83339 | 36073 ft | 451 kts | 354° |
| 2026-04-25 13:04 | -27.48085 | -70.82683 | 36085 ft | 451 kts | 354° |
| 2026-04-25 13:05 | -27.41829 | -70.82018 | 36092 ft | 451 kts | 354° |
| 2026-04-25 13:05 | -27.35617 | -70.81370 | 36101 ft | 451 kts | 354° |
| 2026-04-25 13:06 | -27.30415 | -70.80829 | 36057 ft | 451 kts | 354° |
| 2026-04-25 13:06 | -27.24160 | -70.80176 | 36084 ft | 451 kts | 354° |
| 2026-04-25 13:07 | -27.17904 | -70.79523 | 36091 ft | 451 kts | 354° |
| 2026-04-25 13:07 | -27.11649 | -70.78864 | 36092 ft | 451 kts | 354° |
| 2026-04-25 13:08 | -27.05388 | -70.78211 | 36096 ft | 451 kts | 354° |
| 2026-04-25 13:08 | -26.99129 | -70.77562 | 36096 ft | 451 kts | 354° |
| 2026-04-25 13:09 | -26.92912 | -70.76908 | 36099 ft | 451 kts | 354° |
| 2026-04-25 13:09 | -26.86651 | -70.76252 | 36100 ft | 451 kts | 354° |
| 2026-04-25 13:10 | -26.80402 | -70.75601 | 36099 ft | 451 kts | 354° |
| 2026-04-25 13:10 | -26.74148 | -70.74952 | 36096 ft | 451 kts | 354° |
| 2026-04-25 13:11 | -26.67887 | -70.74296 | 36091 ft | 451 kts | 355° |
| 2026-04-25 13:11 | -26.61619 | -70.73300 | 36098 ft | 456 kts | 358° |
| 2026-04-25 13:12 | -26.55341 | -70.72234 | 36099 ft | 456 kts | 358° |
| 2026-04-25 13:12 | -26.50130 | -70.71345 | 36096 ft | 456 kts | 358° |
| 2026-04-25 13:13 | -26.42848 | -70.70230 | 36079 ft | 450 kts | 355° |
| 2026-04-25 13:13 | -26.36619 | -70.69674 | 36101 ft | 448 kts | 354° |
| 2026-04-25 13:14 | -26.30391 | -70.69136 | 36108 ft | 449 kts | 354° |
| 2026-04-25 13:14 | -26.24161 | -70.68593 | 36104 ft | 449 kts | 354° |
| 2026-04-25 13:15 | -26.17931 | -70.68046 | 36100 ft | 449 kts | 354° |
| 2026-04-25 13:15 | -26.11706 | -70.67504 | 36086 ft | 449 kts | 355° |
| 2026-04-25 13:16 | -26.05475 | -70.66956 | 36105 ft | 449 kts | 355° |
| 2026-04-25 13:16 | -25.99275 | -70.66410 | 36109 ft | 449 kts | 355° |
| 2026-04-25 13:17 | -25.93038 | -70.65867 | 36111 ft | 449 kts | 355° |
| 2026-04-25 13:17 | -25.86793 | -70.65326 | 36108 ft | 449 kts | 355° |
| 2026-04-25 13:18 | -25.80554 | -70.64782 | 36097 ft | 450 kts | 355° |
| 2026-04-25 13:18 | -25.74313 | -70.64235 | 36111 ft | 450 kts | 355° |
| 2026-04-25 13:19 | -25.68070 | -70.63691 | 36113 ft | 450 kts | 355° |
| 2026-04-25 13:19 | -25.62882 | -70.63238 | 36115 ft | 450 kts | 355° |
| 2026-04-25 13:20 | -25.55636 | -70.62608 | 36117 ft | 450 kts | 355° |
| 2026-04-25 13:20 | -25.49381 | -70.62071 | 36104 ft | 450 kts | 355° |
| 2026-04-25 13:21 | -25.43127 | -70.61531 | 36113 ft | 450 kts | 355° |
| 2026-04-25 13:21 | -25.36874 | -70.60992 | 36113 ft | 450 kts | 355° |
| 2026-04-25 13:22 | -25.30663 | -70.60455 | 36101 ft | 450 kts | 355° |
| 2026-04-25 13:23 | -25.21280 | -70.59640 | 36087 ft | 451 kts | 356° |
| 2026-04-25 13:23 | -25.15020 | -70.59096 | 36089 ft | 451 kts | 356° |
| 2026-04-25 13:24 | -25.08751 | -70.58554 | 36092 ft | 451 kts | 356° |
| 2026-04-25 13:24 | -25.02526 | -70.58020 | 36092 ft | 451 kts | 356° |
| 2026-04-25 13:25 | -24.96265 | -70.57481 | 36088 ft | 451 kts | 356° |
| 2026-04-25 13:25 | -24.89997 | -70.56945 | 36084 ft | 452 kts | 356° |
| 2026-04-25 13:26 | -24.83762 | -70.56411 | 36089 ft | 452 kts | 356° |
| 2026-04-25 13:26 | -24.77469 | -70.56076 | 36086 ft | 447 kts | 352° |
| 2026-04-25 13:27 | -24.71289 | -70.56118 | 36091 ft | 447 kts | 352° |
| 2026-04-25 13:27 | -24.65068 | -70.56163 | 36059 ft | 447 kts | 352° |
| 2026-04-25 13:28 | -24.58846 | -70.56202 | 36078 ft | 447 kts | 352° |
| 2026-04-25 13:28 | -24.52614 | -70.56241 | 36088 ft | 448 kts | 352° |
| 2026-04-25 13:29 | -24.46381 | -70.56279 | 36084 ft | 447 kts | 352° |
| 2026-04-25 13:29 | -24.40198 | -70.56318 | 36086 ft | 447 kts | 352° |
| 2026-04-25 13:30 | -24.30851 | -70.56376 | 36078 ft | 447 kts | 352° |
| 2026-04-25 13:31 | -24.21505 | -70.56434 | 36078 ft | 448 kts | 352° |
| 2026-04-25 13:31 | -24.15264 | -70.56472 | 36089 ft | 448 kts | 352° |
| 2026-04-25 13:32 | -24.09065 | -70.56510 | 36096 ft | 448 kts | 352° |
| 2026-04-25 13:32 | -24.02837 | -70.56547 | 36090 ft | 448 kts | 352° |
| 2026-04-25 13:33 | -23.96601 | -70.56586 | 36084 ft | 448 kts | 352° |
| 2026-04-25 13:33 | -23.90376 | -70.56625 | 36099 ft | 447 kts | 352° |
| 2026-04-25 13:34 | -23.84145 | -70.56662 | 36092 ft | 448 kts | 352° |
| 2026-04-25 13:34 | -23.77908 | -70.56697 | 36089 ft | 448 kts | 353° |
| 2026-04-25 13:35 | -23.71694 | -70.56665 | 36083 ft | 448 kts | 353° |
| 2026-04-25 13:35 | -23.65450 | -70.56631 | 36088 ft | 448 kts | 354° |
| 2026-04-25 13:36 | -23.59202 | -70.56596 | 36088 ft | 448 kts | 353° |
| 2026-04-25 13:36 | -23.52956 | -70.56561 | 36088 ft | 449 kts | 353° |
| 2026-04-25 13:37 | -23.46749 | -70.56536 | 36086 ft | 449 kts | 353° |
| 2026-04-25 13:37 | -23.40484 | -70.56519 | 36080 ft | 450 kts | 354° |
| 2026-04-25 13:38 | -23.34209 | -70.56492 | 36087 ft | 451 kts | 354° |
| 2026-04-25 13:38 | -23.27934 | -70.56465 | 36086 ft | 451 kts | 354° |
| 2026-04-25 13:39 | -23.21661 | -70.56437 | 36089 ft | 450 kts | 354° |
| 2026-04-25 13:39 | -23.15394 | -70.56411 | 36094 ft | 450 kts | 354° |
| 2026-04-25 13:40 | -23.09120 | -70.56385 | 36092 ft | 451 kts | 354° |
| 2026-04-25 13:40 | -23.02870 | -70.56356 | 36096 ft | 451 kts | 354° |
| 2026-04-25 13:41 | -22.96591 | -70.56330 | 36102 ft | 451 kts | 354° |
| 2026-04-25 13:41 | -22.90315 | -70.56303 | 36102 ft | 451 kts | 354° |
| 2026-04-25 13:42 | -22.84024 | -70.56221 | 36082 ft | 452 kts | 355° |
| 2026-04-25 13:42 | -22.77727 | -70.56088 | 36096 ft | 452 kts | 356° |
| 2026-04-25 13:43 | -22.71428 | -70.55967 | 36099 ft | 452 kts | 356° |
| 2026-04-25 13:43 | -22.65177 | -70.55847 | 36098 ft | 452 kts | 356° |
| 2026-04-25 13:44 | -22.58879 | -70.55728 | 36100 ft | 452 kts | 356° |
| 2026-04-25 13:44 | -22.52579 | -70.55608 | 36089 ft | 452 kts | 356° |
| 2026-04-25 13:45 | -22.46280 | -70.55487 | 36103 ft | 453 kts | 356° |
| 2026-04-25 13:45 | -22.39978 | -70.55367 | 36102 ft | 453 kts | 356° |
| 2026-04-25 13:46 | -22.33672 | -70.55249 | 36102 ft | 453 kts | 356° |
| 2026-04-25 13:46 | -22.27371 | -70.55129 | 36104 ft | 453 kts | 356° |
| 2026-04-25 13:47 | -22.21111 | -70.55010 | 36089 ft | 453 kts | 356° |
| 2026-04-25 13:47 | -22.14785 | -70.54888 | 36101 ft | 454 kts | 356° |
| 2026-04-25 13:48 | -22.08467 | -70.54767 | 36104 ft | 454 kts | 356° |
| 2026-04-25 13:48 | -22.02147 | -70.54650 | 36105 ft | 454 kts | 356° |
| 2026-04-25 13:49 | -21.95821 | -70.54530 | 36102 ft | 454 kts | 356° |
| 2026-04-25 13:49 | -21.89534 | -70.54411 | 36094 ft | 454 kts | 357° |
| 2026-04-25 13:50 | -21.83206 | -70.54355 | 36105 ft | 454 kts | 356° |
| 2026-04-25 13:50 | -21.76884 | -70.54333 | 36106 ft | 454 kts | 356° |
| 2026-04-25 13:51 | -21.70550 | -70.54298 | 36103 ft | 454 kts | 356° |
| 2026-04-25 13:51 | -21.64217 | -70.54262 | 36109 ft | 454 kts | 356° |
| 2026-04-25 13:52 | -21.57926 | -70.54225 | 36105 ft | 455 kts | 356° |
| 2026-04-25 13:52 | -21.51590 | -70.54190 | 36109 ft | 455 kts | 356° |
| 2026-04-25 13:53 | -21.45249 | -70.54153 | 36110 ft | 455 kts | 356° |
| 2026-04-25 13:53 | -21.38921 | -70.54118 | 36110 ft | 455 kts | 356° |
| 2026-04-25 13:54 | -21.32586 | -70.54083 | 36108 ft | 455 kts | 356° |
| 2026-04-25 13:54 | -21.26296 | -70.54047 | 36102 ft | 455 kts | 357° |
| 2026-04-25 13:55 | -21.19942 | -70.54011 | 36104 ft | 457 kts | 358° |
| 2026-04-25 13:55 | -21.13537 | -70.53976 | 36109 ft | 458 kts | 357° |
| 2026-04-25 13:56 | -21.08253 | -70.53946 | 36106 ft | 457 kts | 357° |
| 2026-04-25 13:56 | -21.01894 | -70.53909 | 36109 ft | 457 kts | 357° |
| 2026-04-25 13:57 | -20.95531 | -70.53875 | 36111 ft | 457 kts | 357° |
| 2026-04-25 13:57 | -20.89171 | -70.53837 | 36110 ft | 457 kts | 357° |
| 2026-04-25 13:58 | -20.82807 | -70.53803 | 36108 ft | 457 kts | 357° |
| 2026-04-25 13:58 | -20.76492 | -70.53768 | 36109 ft | 457 kts | 357° |
| 2026-04-25 13:59 | -20.70130 | -70.53734 | 36109 ft | 457 kts | 357° |
| 2026-04-25 13:59 | -20.63770 | -70.53697 | 36107 ft | 458 kts | 358° |
| 2026-04-25 14:00 | -20.57391 | -70.53660 | 36110 ft | 458 kts | 358° |
| 2026-04-25 14:00 | -20.51009 | -70.53625 | 36110 ft | 458 kts | 358° |
| 2026-04-25 14:01 | -20.44624 | -70.53587 | 36110 ft | 458 kts | 358° |
| 2026-04-25 14:01 | -20.38236 | -70.53550 | 36107 ft | 458 kts | 358° |
| 2026-04-25 14:02 | -20.31892 | -70.53515 | 36103 ft | 459 kts | 358° |
| 2026-04-25 14:02 | -20.25487 | -70.53480 | 36104 ft | 460 kts | 358° |
| 2026-04-25 14:03 | -20.19083 | -70.53443 | 36103 ft | 460 kts | 358° |
| 2026-04-25 14:03 | -20.12685 | -70.53408 | 36103 ft | 460 kts | 358° |
| 2026-04-25 14:04 | -20.06282 | -70.53372 | 36102 ft | 460 kts | 358° |
| 2026-04-25 14:04 | -19.99914 | -70.53335 | 36094 ft | 461 kts | 358° |
| 2026-04-25 14:05 | -19.93503 | -70.53299 | 36066 ft | 457 kts | 358° |
| 2026-04-25 14:05 | -19.90333 | -70.53279 | 35182 ft | 459 kts | 358° |
| 2026-04-25 14:05 | -19.87080 | -70.53263 | 33830 ft | 474 kts | 358° |
| 2026-04-25 14:05 | -19.83754 | -70.53246 | 32771 ft | 478 kts | 359° |
| 2026-04-25 14:06 | -19.80428 | -70.53355 | 31787 ft | 478 kts | 352° |
| 2026-04-25 14:06 | -19.77127 | -70.53916 | 30803 ft | 479 kts | 349° |
| 2026-04-25 14:06 | -19.73854 | -70.54555 | 29644 ft | 477 kts | 348° |
| 2026-04-25 14:06 | -19.70585 | -70.55193 | 28351 ft | 476 kts | 349° |
| 2026-04-25 14:07 | -19.67328 | -70.55814 | 27104 ft | 475 kts | 349° |
| 2026-04-25 14:07 | -19.64118 | -70.56411 | 25886 ft | 474 kts | 349° |
| 2026-04-25 14:07 | -19.60865 | -70.57018 | 24667 ft | 474 kts | 350° |
| 2026-04-25 14:07 | -19.57620 | -70.57617 | 23463 ft | 473 kts | 350° |
| 2026-04-25 14:08 | -19.54349 | -70.58215 | 22231 ft | 474 kts | 350° |
| 2026-04-25 14:08 | -19.51113 | -70.58810 | 21311 ft | 469 kts | 350° |
| 2026-04-25 14:08 | -19.47916 | -70.59393 | 20762 ft | 465 kts | 350° |
| 2026-04-25 14:08 | -19.44713 | -70.59844 | 20447 ft | 463 kts | 356° |
| 2026-04-25 14:09 | -19.41506 | -70.59621 | 20278 ft | 462 kts | 9° |
| 2026-04-25 14:09 | -19.38359 | -70.58896 | 20187 ft | 462 kts | 13° |
| 2026-04-25 14:09 | -19.35269 | -70.58111 | 20141 ft | 463 kts | 13° |
| 2026-04-25 14:09 | -19.33152 | -70.57583 | 20124 ft | 462 kts | 12° |
| 2026-04-25 14:10 | -19.29000 | -70.56577 | 20096 ft | 462 kts | 12° |
| 2026-04-25 14:10 | -19.25891 | -70.55833 | 19979 ft | 449 kts | 12° |
| 2026-04-25 14:10 | -19.22888 | -70.55106 | 19070 ft | 439 kts | 12° |
| 2026-04-25 14:10 | -19.19917 | -70.54385 | 17929 ft | 437 kts | 12° |
| 2026-04-25 14:11 | -19.16983 | -70.53682 | 17201 ft | 425 kts | 12° |
| 2026-04-25 14:11 | -19.14156 | -70.53004 | 16818 ft | 405 kts | 12° |
| 2026-04-25 14:11 | -19.11473 | -70.52364 | 16503 ft | 385 kts | 12° |
| 2026-04-25 14:11 | -19.08920 | -70.51752 | 16246 ft | 367 kts | 12° |
| 2026-04-25 14:12 | -19.06485 | -70.51188 | 16019 ft | 349 kts | 11° |
| 2026-04-25 14:12 | -19.04183 | -70.50719 | 15794 ft | 334 kts | 10° |
| 2026-04-25 14:12 | -19.01941 | -70.50275 | 15462 ft | 323 kts | 10° |
| 2026-04-25 14:12 | -18.99730 | -70.49837 | 14888 ft | 322 kts | 10° |
| 2026-04-25 14:13 | -18.97526 | -70.49403 | 14331 ft | 321 kts | 10° |
| 2026-04-25 14:13 | -18.95331 | -70.48971 | 13763 ft | 319 kts | 11° |
| 2026-04-25 14:13 | -18.93155 | -70.48544 | 13138 ft | 315 kts | 11° |
| 2026-04-25 14:13 | -18.91002 | -70.48123 | 12474 ft | 313 kts | 11° |
| 2026-04-25 14:14 | -18.88868 | -70.47703 | 11861 ft | 310 kts | 11° |
| 2026-04-25 14:14 | -18.86754 | -70.47286 | 11269 ft | 307 kts | 11° |
| 2026-04-25 14:14 | -18.84661 | -70.46873 | 10654 ft | 305 kts | 11° |
| 2026-04-25 14:14 | -18.82609 | -70.46467 | 10105 ft | 302 kts | 11° |
| 2026-04-25 14:15 | -18.80544 | -70.46058 | 9457 ft | 301 kts | 11° |
| 2026-04-25 14:15 | -18.79851 | -70.45921 | 9246 ft | 300 kts | 11° |
| 2026-04-25 14:15 | -18.76464 | -70.45249 | 8224 ft | 296 kts | 11° |
| 2026-04-25 14:15 | -18.74445 | -70.44847 | 7624 ft | 294 kts | 12° |
| 2026-04-25 14:16 | -18.72439 | -70.44447 | 7072 ft | 290 kts | 11° |
| 2026-04-25 14:16 | -18.70459 | -70.44056 | 6463 ft | 289 kts | 11° |
| 2026-04-25 14:16 | -18.68497 | -70.43668 | 5869 ft | 285 kts | 11° |
| 2026-04-25 14:16 | -18.66560 | -70.43285 | 5279 ft | 281 kts | 11° |
| 2026-04-25 14:17 | -18.64655 | -70.42907 | 4730 ft | 276 kts | 11° |
| 2026-04-25 14:17 | -18.62799 | -70.42540 | 4286 ft | 266 kts | 11° |
| 2026-04-25 14:17 | -18.61031 | -70.42191 | 3867 ft | 257 kts | 11° |
| 2026-04-25 14:17 | -18.59300 | -70.41846 | 3665 ft | 245 kts | 11° |
| 2026-04-25 14:18 | -18.57650 | -70.41496 | 3507 ft | 237 kts | 11° |
| 2026-04-25 14:18 | -18.56073 | -70.41193 | 3465 ft | 222 kts | 10° |
| 2026-04-25 14:18 | -18.54610 | -70.40912 | 3456 ft | 205 kts | 11° |
| 2026-04-25 14:18 | -18.53234 | -70.40621 | 3462 ft | 201 kts | 15° |
| 2026-04-25 14:19 | -18.51907 | -70.40172 | 3198 ft | 200 kts | 20° |
| 2026-04-25 14:19 | -18.50618 | -70.39682 | 2893 ft | 194 kts | 19° |
| 2026-04-25 14:19 | -18.49340 | -70.39203 | 2547 ft | 194 kts | 19° |
| 2026-04-25 14:19 | -18.48080 | -70.38738 | 2185 ft | 195 kts | 19° |
| 2026-04-25 14:20 | -18.46800 | -70.38267 | 1816 ft | 192 kts | 19° |
| 2026-04-25 14:20 | -18.45977 | -70.37965 | 1648 ft | 183 kts | 18° |
| 2026-04-25 14:20 | -18.44502 | -70.37419 | 1631 ft | 155 kts | 18° |
| 2026-04-25 14:20 | -18.43482 | -70.37054 | 1635 ft | 154 kts | 17° |
| 2026-04-25 14:21 | -18.42474 | -70.36687 | 1424 ft | 149 kts | 19° |
| 2026-04-25 14:21 | -18.41557 | -70.36350 | 1210 ft | 136 kts | 18° |
| 2026-04-25 14:21 | -18.40666 | -70.36025 | 1022 ft | 135 kts | 19° |
| 2026-04-25 14:21 | -18.39775 | -70.35699 | 840 ft | 136 kts | 18° |
| 2026-04-25 14:22 | -18.38894 | -70.35375 | 669 ft | 136 kts | 19° |
| 2026-04-25 14:22 | -18.38002 | -70.35037 | 523 ft | 136 kts | 18° |
| 2026-04-25 14:22 | -18.37111 | -70.34709 | 373 ft | 135 kts | 18° |
| 2026-04-25 14:22 | -18.36220 | -70.34378 | 199 ft | 135 kts | 18° |
| 2026-04-25 14:23 | -18.35428 | -70.34089 | 181 ft | 91 kts | 19° |
| 2026-04-25 14:23 | -18.35099 | -70.33970 | 188 ft | 25 kts | 21° |
| 2026-04-25 14:23 | -18.34928 | -70.33904 | 188 ft | 27 kts | 20° |
| 2026-04-25 14:23 | -18.34831 | -70.33861 | 189 ft | 13 kts | 46° |
| 2026-04-25 14:24 | -18.34820 | -70.33809 | 189 ft | 1 kts | 112° |
| 2026-04-25 14:24 | -18.34823 | -70.33803 | 189 ft | 0 kts | 115° |